createdAt,value
2023-11-30T00:00:38.606Z,71.90
2023-11-30T00:03:05.646Z,78.63
2023-11-30T00:05:32.577Z,72.80
2023-11-30T00:07:59.724Z,71.25
2023-11-30T00:10:26.619Z,95.35
2023-11-30T00:12:53.469Z,92.32
2023-11-30T00:15:20.358Z,100.50
2023-11-30T00:17:47.425Z,98.07
2023-11-30T00:20:14.396Z,87.45
2023-11-30T00:22:42.760Z,100.85
2023-11-30T00:25:09.800Z,87.53
2023-11-30T00:27:36.708Z,76.70
2023-11-30T00:30:04.134Z,89.90
2023-11-30T00:35:06.089Z,108.57
2023-11-30T00:37:32.969Z,102.75
2023-11-30T00:39:59.834Z,102.57
2023-11-30T00:42:26.963Z,101.72
2023-11-30T00:44:54.044Z,98.22
2023-11-30T00:47:21.061Z,95.93
2023-11-30T00:49:48.018Z,87.32
2023-11-30T00:52:16.164Z,85.50
2023-11-30T00:54:43.021Z,87.77
2023-11-30T00:57:10.014Z,78.32
2023-11-30T00:59:36.906Z,82.30
2023-11-30T01:02:03.812Z,76.40
2023-11-30T01:04:30.756Z,64.97
2023-11-30T01:06:57.629Z,67.60
2023-11-30T01:09:24.513Z,60.47
2023-11-30T01:11:51.750Z,76.68
2023-11-30T01:14:18.698Z,67.90
2023-11-30T01:16:46.134Z,74.15
2023-11-30T01:19:13.230Z,79.30
2023-11-30T01:21:40.249Z,76.75
2023-11-30T01:24:07.445Z,76.18
2023-11-30T01:26:34.916Z,76.63
2023-11-30T01:29:01.777Z,73.47
2023-11-30T01:31:28.695Z,74.38
2023-11-30T01:33:55.594Z,79.10
2023-11-30T01:36:22.523Z,80.22
2023-11-30T01:38:49.409Z,75.13
2023-11-30T01:41:16.456Z,63.67
2023-11-30T01:43:43.446Z,62.10
2023-11-30T01:46:10.521Z,71.10
2023-11-30T01:48:37.470Z,71.47
2023-11-30T01:51:05.886Z,74.30
2023-11-30T01:53:33.235Z,74.60
2023-11-30T01:56:00.114Z,78.10
2023-11-30T01:58:26.990Z,76.25
2023-11-30T02:00:53.886Z,77.78
2023-11-30T02:03:23.387Z,70.93
2023-11-30T02:05:52.692Z,76.10
2023-11-30T02:08:19.760Z,78.20
2023-11-30T02:10:46.681Z,80.38
2023-11-30T02:13:13.555Z,77.57
2023-11-30T02:15:40.594Z,78.18
2023-11-30T02:18:07.595Z,76.75
2023-11-30T02:20:34.504Z,73.55
2023-11-30T02:23:01.362Z,77.40
2023-11-30T02:25:28.273Z,80.47
2023-11-30T02:27:55.138Z,78.43
2023-11-30T02:30:22.212Z,72.38
2023-11-30T02:32:49.197Z,75.20
2023-11-30T02:35:16.132Z,84.40
2023-11-30T02:37:42.996Z,70.70
2023-11-30T02:40:10.645Z,76.40
2023-11-30T02:42:37.567Z,81.10
2023-11-30T02:45:05.150Z,77.28
2023-11-30T02:47:32.128Z,72.65
2023-11-30T02:49:59.093Z,75.28
2023-11-30T02:52:25.956Z,81.07
2023-11-30T02:54:52.879Z,72.80
2023-11-30T02:57:19.793Z,68.50
2023-11-30T02:59:47.350Z,72.85
2023-11-30T03:02:15.649Z,70.55
2023-11-30T03:04:42.696Z,69.80
2023-11-30T03:07:09.687Z,75.00
2023-11-30T03:09:36.625Z,65.72
2023-11-30T03:12:03.846Z,65.82
2023-11-30T03:14:30.736Z,63.70
2023-11-30T03:16:58.133Z,62.63
2023-11-30T03:19:25.042Z,64.80
2023-11-30T03:21:52.216Z,58.60
2023-11-30T03:24:19.876Z,61.85
2023-11-30T03:26:46.926Z,58.58
2023-11-30T03:29:13.809Z,61.00
2023-11-30T03:31:41.174Z,60.80
2023-11-30T03:34:08.559Z,66.38
2023-11-30T03:36:35.479Z,64.90
2023-11-30T03:39:02.473Z,57.47
2023-11-30T03:41:29.340Z,62.40
2023-11-30T03:43:56.280Z,55.67
2023-11-30T03:46:25.452Z,64.75
2023-11-30T03:48:53.722Z,61.03
2023-11-30T03:51:20.659Z,64.67
2023-11-30T03:53:47.797Z,68.82
2023-11-30T03:56:14.757Z,66.95
2023-11-30T03:58:41.642Z,68.68
2023-11-30T04:01:08.793Z,64.57
2023-11-30T04:03:35.684Z,59.47
2023-11-30T04:06:02.594Z,56.08
2023-11-30T04:08:29.523Z,64.22
2023-11-30T04:10:56.452Z,65.90
2023-11-30T04:13:23.317Z,67.30
2023-11-30T04:15:50.258Z,65.30
2023-11-30T04:18:17.217Z,64.40
2023-11-30T04:20:44.154Z,62.13
2023-11-30T04:23:11.134Z,58.05
2023-11-30T04:25:38.465Z,60.75
2023-11-30T04:28:05.360Z,59.15
2023-11-30T04:30:32.727Z,56.83
2023-11-30T04:32:59.725Z,58.67
2023-11-30T04:35:26.683Z,58.33
2023-11-30T04:37:53.878Z,70.95
2023-11-30T04:40:20.809Z,72.28
2023-11-30T04:42:47.715Z,60.08
2023-11-30T04:45:14.659Z,61.53
2023-11-30T04:47:41.735Z,56.88
2023-11-30T04:50:09.027Z,58.38
2023-11-30T04:52:35.953Z,55.72
2023-11-30T04:55:02.905Z,56.25
2023-11-30T04:57:29.810Z,58.28
2023-11-30T04:59:56.927Z,53.20
2023-11-30T05:02:24.207Z,56.80
2023-11-30T05:04:51.316Z,56.05
2023-11-30T05:07:18.345Z,60.58
2023-11-30T05:09:45.272Z,57.45
2023-11-30T05:12:12.656Z,56.42
2023-11-30T05:14:39.635Z,54.45
2023-11-30T05:17:06.558Z,53.50
2023-11-30T05:19:33.484Z,51.95
2023-11-30T05:22:00.330Z,52.30
2023-11-30T05:24:27.292Z,54.25
2023-11-30T05:26:54.156Z,52.45
2023-11-30T05:29:21.043Z,53.03
2023-11-30T05:31:48.022Z,50.60
2023-11-30T05:34:15.330Z,60.70
2023-11-30T05:36:42.640Z,59.45
2023-11-30T05:39:10.054Z,55.28
2023-11-30T05:41:37.048Z,54.92
2023-11-30T05:44:04.945Z,57.17
2023-11-30T05:46:31.979Z,61.90
2023-11-30T05:48:58.995Z,57.53
2023-11-30T05:51:27.857Z,61.22
2023-11-30T05:53:54.860Z,60.88
2023-11-30T05:56:22.101Z,56.75
2023-11-30T05:58:49.048Z,60.65
2023-11-30T06:01:18.116Z,62.55
2023-11-30T06:03:45.247Z,65.38
2023-11-30T06:06:12.289Z,70.28
2023-11-30T06:11:32.514Z,64.28
2023-11-30T06:14:01.721Z,65.80
2023-11-30T06:16:30.701Z,69.25
2023-11-30T06:18:57.627Z,74.35
2023-11-30T06:21:24.514Z,75.57
2023-11-30T06:23:51.404Z,70.68
2023-11-30T06:26:18.856Z,73.07
2023-11-30T06:28:45.823Z,81.05
2023-11-30T06:31:15.803Z,84.45
2023-11-30T06:33:43.298Z,77.57
2023-11-30T06:36:10.481Z,72.53
2023-11-30T06:38:37.349Z,74.97
2023-11-30T06:41:14.022Z,67.88
2023-11-30T06:43:41.887Z,67.60
2023-11-30T06:46:08.898Z,69.38
2023-11-30T06:48:36.070Z,71.85
2023-11-30T06:51:03.137Z,65.38
2023-11-30T06:56:07.293Z,65.50
2023-11-30T06:58:34.673Z,75.93
2023-11-30T07:01:01.579Z,71.18
2023-11-30T07:03:30.254Z,73.65
2023-11-30T07:05:57.478Z,71.18
2023-11-30T07:08:24.374Z,75.38
2023-11-30T07:10:51.279Z,69.72
2023-11-30T07:13:18.732Z,72.38
2023-11-30T07:15:45.661Z,73.00
2023-11-30T07:18:15.018Z,72.32
2023-11-30T07:20:42.117Z,73.72
2023-11-30T07:23:09.205Z,72.03
2023-11-30T07:25:36.059Z,68.00
2023-11-30T07:28:03.079Z,71.60
2023-11-30T07:30:30.545Z,66.63
2023-11-30T07:32:57.621Z,69.03
2023-11-30T07:35:24.739Z,70.60
2023-11-30T07:37:51.627Z,71.60
2023-11-30T07:40:19.364Z,65.28
2023-11-30T07:42:46.397Z,71.18
2023-11-30T07:45:13.350Z,76.28
2023-11-30T07:47:40.317Z,73.15
2023-11-30T07:50:07.713Z,73.18
2023-11-30T07:52:38.442Z,89.50
2023-11-30T07:55:08.479Z,89.40
2023-11-30T07:57:38.958Z,73.60
2023-11-30T08:00:17.839Z,84.50
2023-11-30T08:02:47.467Z,64.13
2023-11-30T08:05:14.401Z,50.85
2023-11-30T08:07:41.681Z,48.88
2023-11-30T08:10:09.076Z,43.47
2023-11-30T08:12:36.474Z,45.05
2023-11-30T08:15:05.401Z,45.63
2023-11-30T08:19:59.321Z,40.50
2023-11-30T08:22:26.170Z,39.83
2023-11-30T08:24:53.125Z,36.80
2023-11-30T08:27:21.507Z,44.47
2023-11-30T08:29:48.393Z,41.35
2023-11-30T08:32:15.353Z,45.05
2023-11-30T08:34:42.296Z,47.70
2023-11-30T08:37:09.167Z,55.20
2023-11-30T08:39:36.129Z,74.70
2023-11-30T08:42:03.337Z,57.45
2023-11-30T08:44:30.430Z,56.70
2023-11-30T08:46:57.790Z,50.20
2023-11-30T08:49:24.751Z,40.65
2023-11-30T08:51:53.267Z,49.63
2023-11-30T08:54:22.485Z,50.85
2023-11-30T08:56:49.543Z,48.65
2023-11-30T08:59:18.120Z,40.85
2023-11-30T09:01:45.706Z,38.53
2023-11-30T09:04:12.980Z,41.50
2023-11-30T09:06:39.889Z,41.17
2023-11-30T09:09:06.812Z,37.30
2023-11-30T09:11:35.379Z,37.85
2023-11-30T09:14:02.603Z,38.55
2023-11-30T09:16:29.539Z,34.10
2023-11-30T09:18:56.750Z,35.15
2023-11-30T09:21:26.942Z,32.67
2023-11-30T09:23:54.315Z,37.40
2023-11-30T09:26:23.140Z,37.60
2023-11-30T09:28:50.399Z,38.55
2023-11-30T09:31:17.375Z,38.42
2023-11-30T09:33:45.714Z,34.35
2023-11-30T09:36:14.202Z,36.38
2023-11-30T09:38:41.773Z,35.00
2023-11-30T09:41:08.712Z,36.83
2023-11-30T09:43:36.372Z,34.88
2023-11-30T09:46:03.556Z,32.58
2023-11-30T09:48:30.512Z,33.95
2023-11-30T09:50:57.501Z,40.40
2023-11-30T09:53:25.070Z,36.75
2023-11-30T09:55:52.023Z,38.78
2023-11-30T09:58:18.950Z,37.60
2023-11-30T10:00:46.174Z,38.92
2023-11-30T10:03:14.021Z,35.15
2023-11-30T10:05:43.036Z,33.50
2023-11-30T10:13:11.839Z,24.38
2023-11-30T10:15:38.880Z,27.60
2023-11-30T10:18:06.399Z,29.20
2023-11-30T10:20:36.331Z,28.45
2023-11-30T10:23:13.597Z,26.27
2023-11-30T10:25:42.039Z,28.52
2023-11-30T10:28:13.962Z,29.83
2023-11-30T10:30:41.690Z,31.73
2023-11-30T10:33:25.078Z,29.35
2023-11-30T10:35:53.433Z,29.73
2023-11-30T10:38:25.552Z,26.08
2023-11-30T10:40:56.909Z,26.88
2023-11-30T10:43:27.808Z,147.90
2023-11-30T10:45:58.901Z,34.92
2023-11-30T10:48:26.003Z,29.05
2023-11-30T10:50:53.433Z,25.63
2023-11-30T10:53:44.094Z,32.22
2023-11-30T10:56:12.276Z,28.73
2023-11-30T10:58:39.155Z,28.37
2023-11-30T11:01:06.462Z,24.33
2023-11-30T11:03:33.946Z,24.20
2023-11-30T11:06:03.953Z,22.70
2023-11-30T11:08:32.399Z,28.05
2023-11-30T11:11:08.125Z,27.38
2023-11-30T11:13:44.532Z,25.45
2023-11-30T11:16:11.699Z,29.13
2023-11-30T11:18:41.855Z,28.45
2023-11-30T11:21:26.939Z,29.98
2023-11-30T11:23:53.906Z,25.98
2023-11-30T11:26:24.101Z,27.85
2023-11-30T11:28:51.732Z,28.50
2023-11-30T11:31:18.705Z,28.13
2023-11-30T11:33:45.749Z,26.52
2023-11-30T11:36:14.724Z,28.17
2023-11-30T11:41:09.369Z,26.42
2023-11-30T11:43:36.380Z,29.52
2023-11-30T11:46:03.444Z,26.33
2023-11-30T11:48:30.485Z,27.95
2023-11-30T11:51:01.308Z,34.92
2023-11-30T11:53:28.250Z,37.80
2023-11-30T11:56:04.322Z,28.88
2023-11-30T11:58:31.430Z,28.58
2023-11-30T12:00:58.407Z,28.08
2023-11-30T12:03:26.819Z,29.13
2023-11-30T12:05:55.305Z,27.48
2023-11-30T12:08:30.452Z,25.40
2023-11-30T12:10:57.455Z,27.80
2023-11-30T12:13:27.969Z,35.15
2023-11-30T12:15:55.615Z,37.90
2023-11-30T12:18:22.890Z,39.30
2023-11-30T12:20:50.305Z,33.22
2023-11-30T12:23:17.488Z,34.92
2023-11-30T12:25:44.594Z,33.15
2023-11-30T12:28:12.850Z,35.78
2023-11-30T12:30:39.833Z,27.55
2023-11-30T12:33:06.878Z,29.13
2023-11-30T12:35:35.587Z,23.88
2023-11-30T12:38:03.232Z,34.67
2023-11-30T12:40:30.083Z,37.67
2023-11-30T12:42:58.032Z,33.90
2023-11-30T12:45:25.078Z,39.88
2023-11-30T12:47:52.297Z,30.73
2023-11-30T12:50:21.479Z,25.38
2023-11-30T12:52:56.641Z,23.67
2023-11-30T12:55:24.297Z,28.88
2023-11-30T12:57:53.722Z,31.75
2023-11-30T13:00:21.980Z,37.33
2023-11-30T13:07:03.795Z,47.88
2023-11-30T13:09:52.033Z,34.75
2023-11-30T13:12:32.447Z,39.13
2023-11-30T13:15:25.290Z,39.88
2023-11-30T13:18:12.909Z,33.67
2023-11-30T13:20:42.430Z,37.85
2023-11-30T13:23:09.443Z,36.33
2023-11-30T13:25:36.392Z,36.45
2023-11-30T13:28:03.778Z,34.92
2023-11-30T13:30:34.484Z,40.58
2023-11-30T13:33:14.847Z,39.92
2023-11-30T13:35:45.654Z,28.70
2023-11-30T13:59:44.651Z,31.65
2023-11-30T14:02:11.858Z,29.95
2023-11-30T14:04:41.586Z,32.55
2023-11-30T14:07:55.569Z,33.22
2023-11-30T14:24:18.614Z,30.20
2023-11-30T14:26:48.581Z,28.48
2023-11-30T14:29:26.019Z,26.58
2023-11-30T14:37:35.284Z,24.88
2023-11-30T14:40:04.840Z,24.63
2023-11-30T14:42:34.401Z,33.50
2023-11-30T14:45:01.294Z,37.22
2023-11-30T14:47:38.901Z,33.72
2023-11-30T14:50:11.446Z,32.33
2023-11-30T14:52:39.194Z,32.95
2023-11-30T14:55:07.463Z,31.58
2023-11-30T14:57:34.329Z,33.63
2023-11-30T15:00:05.168Z,35.53
2023-11-30T15:02:32.123Z,39.25
2023-11-30T15:04:59.081Z,38.97
2023-11-30T15:07:26.715Z,36.75
2023-11-30T15:09:54.103Z,35.03
2023-11-30T15:12:21.049Z,31.30
2023-11-30T15:14:48.575Z,34.08
2023-11-30T15:17:15.539Z,46.17
2023-11-30T15:19:42.480Z,42.60
2023-11-30T15:22:10.182Z,40.35
2023-11-30T15:24:37.106Z,46.15
2023-11-30T15:27:04.861Z,48.85
2023-11-30T15:29:32.262Z,48.90
2023-11-30T15:31:59.261Z,54.03
2023-11-30T15:34:29.572Z,38.05
2023-11-30T15:36:56.529Z,41.15
2023-11-30T15:39:25.294Z,45.47
2023-11-30T15:41:59.699Z,41.30
2023-11-30T15:44:26.729Z,48.80
2023-11-30T15:46:53.992Z,38.97
2023-11-30T15:49:20.964Z,52.70
2023-11-30T15:51:49.842Z,60.13
2023-11-30T15:56:45.173Z,44.95
2023-11-30T15:59:12.115Z,48.25
2023-11-30T16:01:39.087Z,63.40
2023-11-30T16:04:07.356Z,54.15
2023-11-30T16:06:34.892Z,59.85
2023-11-30T16:09:03.264Z,43.83
2023-11-30T16:11:30.144Z,43.08
2023-11-30T16:13:57.250Z,68.03
2023-11-30T16:16:24.269Z,69.65
2023-11-30T16:18:51.213Z,89.40
2023-11-30T16:21:20.348Z,67.95
2023-11-30T16:23:48.378Z,83.65
2023-11-30T16:26:19.135Z,45.67
2023-11-30T16:28:46.609Z,38.53
2023-11-30T16:31:13.886Z,38.53
2023-11-30T16:33:42.184Z,43.10
2023-11-30T16:36:12.956Z,43.38
2023-11-30T16:38:40.028Z,44.08
2023-11-30T16:41:07.744Z,51.83
2023-11-30T16:43:37.073Z,58.30
2023-11-30T16:46:04.893Z,52.83
2023-11-30T16:48:32.075Z,50.00
2023-11-30T16:50:59.683Z,53.45
2023-11-30T16:53:28.945Z,48.58
2023-11-30T16:55:56.564Z,48.97
2023-11-30T16:58:23.452Z,42.00
2023-11-30T17:00:50.585Z,36.28
2023-11-30T17:03:17.600Z,45.70
2023-11-30T17:05:44.522Z,49.63
2023-11-30T17:08:11.360Z,45.63
2023-11-30T17:10:38.182Z,39.70
2023-11-30T17:13:05.737Z,42.60
2023-11-30T17:15:33.232Z,38.47
2023-11-30T17:18:00.259Z,42.08
2023-11-30T17:20:27.157Z,53.08
2023-11-30T17:22:54.104Z,71.53
2023-11-30T17:25:21.276Z,64.03
2023-11-30T17:27:55.835Z,64.45
2023-11-30T17:30:23.052Z,60.40
2023-11-30T17:35:39.962Z,45.95
2023-11-30T17:38:12.805Z,40.88
2023-11-30T17:40:39.687Z,40.35
2023-11-30T17:43:06.778Z,36.65
2023-11-30T17:45:33.788Z,74.07
2023-11-30T17:48:00.810Z,72.30
2023-11-30T17:53:24.480Z,56.88
2023-11-30T17:55:51.503Z,47.88
2023-11-30T17:58:18.588Z,40.15
2023-11-30T18:00:45.539Z,37.45
2023-11-30T18:03:21.493Z,36.30
2023-11-30T18:05:49.460Z,47.67
2023-11-30T18:08:16.293Z,53.45
2023-11-30T18:10:44.676Z,68.18
2023-11-30T18:13:14.019Z,103.73
2023-11-30T18:15:41.107Z,85.43
2023-11-30T18:18:08.134Z,55.80
2023-11-30T18:20:35.145Z,61.70
2023-11-30T18:23:02.017Z,59.92
2023-11-30T18:25:29.089Z,64.72
2023-11-30T18:36:56.712Z,57.75
2023-11-30T18:42:37.446Z,66.80
2023-11-30T18:45:05.026Z,63.22
2023-11-30T18:47:50.136Z,59.78
2023-11-30T18:50:52.548Z,54.30
2023-11-30T19:13:16.597Z,54.95
2023-11-30T19:22:35.239Z,55.58
2023-11-30T19:29:33.126Z,44.53
2023-11-30T19:45:22.339Z,50.47
2023-11-30T19:47:53.586Z,41.80
2023-11-30T20:03:01.588Z,76.82
2023-11-30T20:14:06.296Z,45.22
2023-11-30T20:16:39.877Z,42.08
2023-11-30T20:19:07.111Z,51.85
2023-11-30T20:21:34.178Z,51.28
2023-11-30T20:24:01.119Z,47.53
2023-11-30T20:26:30.862Z,48.20
2023-11-30T20:28:58.094Z,46.03
2023-11-30T20:31:42.106Z,50.28
2023-11-30T20:34:09.316Z,44.30
2023-11-30T20:36:37.511Z,49.70
2023-11-30T20:49:26.759Z,46.05
2023-11-30T20:51:54.310Z,50.95
2023-11-30T20:54:29.478Z,50.08
2023-11-30T20:56:56.343Z,45.50
2023-11-30T21:09:13.867Z,60.05
2023-11-30T21:11:41.018Z,58.20
2023-11-30T21:14:09.680Z,91.90
2023-11-30T21:16:37.018Z,56.22
2023-11-30T21:19:04.026Z,57.28
2023-11-30T21:21:31.079Z,47.75
2023-11-30T21:23:58.144Z,46.60
2023-11-30T21:26:24.980Z,46.95
2023-11-30T21:28:51.784Z,78.75
2023-11-30T21:31:18.791Z,70.15
2023-11-30T21:33:45.812Z,54.47
2023-11-30T21:36:16.046Z,43.83
2023-11-30T21:38:45.304Z,46.70
2023-11-30T21:41:24.721Z,45.47
2023-11-30T21:43:51.756Z,44.38
2023-11-30T21:46:19.691Z,44.38
2023-11-30T21:48:46.750Z,40.38
2023-11-30T21:51:15.282Z,38.95
2023-11-30T21:53:43.144Z,45.72
2023-11-30T21:56:13.135Z,41.33
2023-11-30T21:58:39.978Z,46.40
2023-11-30T22:01:08.376Z,42.00
2023-11-30T22:03:49.153Z,42.05
2023-11-30T22:06:16.116Z,41.03
2023-11-30T22:08:43.077Z,40.55
2023-11-30T22:11:09.925Z,45.03
2023-11-30T22:13:37.100Z,39.95
2023-11-30T22:16:11.750Z,35.88
2023-11-30T22:18:40.041Z,42.90
2023-11-30T22:21:07.403Z,41.65
2023-11-30T22:23:34.315Z,55.45
2023-11-30T22:26:04.338Z,44.33
2023-11-30T22:28:31.700Z,44.58
2023-11-30T22:30:59.319Z,37.28
2023-11-30T22:33:26.309Z,37.83
2023-11-30T22:35:53.451Z,38.58
2023-11-30T22:38:20.571Z,34.53
2023-11-30T22:40:47.372Z,35.47
2023-11-30T22:48:44.572Z,36.00
2023-11-30T22:51:11.749Z,32.00
2023-11-30T22:53:41.879Z,41.55
2023-11-30T22:56:11.298Z,36.30
2023-11-30T22:58:41.662Z,34.17
2023-11-30T23:01:08.767Z,36.70
2023-11-30T23:03:36.209Z,32.83
2023-11-30T23:06:05.046Z,30.27
2023-11-30T23:08:42.919Z,32.50
2023-11-30T23:11:17.762Z,31.40
2023-11-30T23:13:46.008Z,36.60
2023-11-30T23:16:17.359Z,31.25
2023-11-30T23:18:50.259Z,38.30
2023-11-30T23:21:20.057Z,29.95
2023-11-30T23:23:48.012Z,27.23
2023-11-30T23:26:17.998Z,31.90
2023-11-30T23:28:44.956Z,34.78
2023-11-30T23:31:16.202Z,36.78
2023-11-30T23:33:56.276Z,34.13
2023-11-30T23:36:31.637Z,33.85
2023-11-30T23:39:06.737Z,31.42
2023-11-30T23:44:31.108Z,31.05
2023-11-30T23:47:05.273Z,30.08
2023-11-30T23:49:45.513Z,29.42
2023-11-30T23:52:18.588Z,24.65
2023-11-30T23:54:49.754Z,26.08
2023-11-30T23:57:25.146Z,23.50
2023-11-30T23:59:52.291Z,31.85
